Time;durP1;ratioP1;P1;durP2;ratioP2;P2;SDS_P1;SDS_P2;PMS_P1;PMS_P2;Temp;Humidity;BMP_temperature;BMP_pressure;BME280_temperature;BME280_humidity;BME280_pressure;Samples;Min_cycle;Max_cycle;Signal;HPM_P1;HPM_P2
2022/03/15 00:00:28;;;;;;;11.40;4.53;;;;;;;;;;5035130;28;20888;-77
2022/03/15 00:02:56;;;;;;;14.00;4.70;;;;;;;;;;5044106;28;20814;-75
2022/03/15 00:05:23;;;;;;;18.87;5.47;;;;;;;;;;5039909;28;20433;-75
2022/03/15 00:07:51;;;;;;;8.60;3.70;;;;;;;;;;5041053;28;20506;-75
2022/03/15 00:10:21;;;;;;;9.60;3.70;;;;;;;;;;5040214;28;20429;-75
2022/03/15 00:12:47;;;;;;;10.10;4.00;;;;;;;;;;5017702;28;20211;-75
2022/03/15 00:15:14;;;;;;;8.68;4.80;;;;;;;;;;5030842;28;20450;-74
2022/03/15 00:17:41;;;;;;;6.80;3.00;;;4.80;1.00;;;;;;5044798;28;20214;-77
2022/03/15 00:20:11;;;;;;;11.18;4.10;;;4.90;1.00;;;;;;5048466;28;20403;-77
2022/03/15 00:22:38;;;;;;;12.67;4.93;;;;;;;;;;5041586;28;20267;-77
2022/03/15 00:25:08;;;;;;;21.73;5.20;;;;;;;;;;5040866;28;20465;-77
2022/03/15 00:27:35;;;;;;;14.13;3.90;;;;;;;;;;5039943;28;20501;-77
2022/03/15 00:30:05;;;;;;;8.77;4.60;;;4.90;1.00;;;;;;5032575;28;20787;-77
2022/03/15 00:32:39;;;;;;;13.67;4.33;;;;;;;;;;5027318;28;20415;-77
2022/03/15 00:35:18;;;;;;;17.27;4.90;;;4.90;1.00;;;;;;5042764;28;20462;-77
2022/03/15 00:37:46;;;;;;;10.50;4.17;;;4.90;1.00;;;;;;5040517;28;20415;-77
2022/03/15 00:40:13;;;;;;;39.25;6.70;;;4.90;1.00;;;;;;5039693;28;20429;-77
2022/03/15 00:42:47;;;;;;;8.15;3.72;;;;;;;;;;5039995;28;20172;-77
2022/03/15 00:45:13;;;;;;;11.23;4.45;;;;;;;;;;5039833;28;20172;-77
2022/03/15 00:47:39;;;;;;;11.65;4.07;;;;;;;;;;5049388;28;20560;-77
2022/03/15 00:50:06;;;;;;;21.73;5.60;;;;;;;;;;5042041;28;20262;-77
2022/03/15 00:52:33;;;;;;;9.77;4.43;;;;;;;;;;5040775;28;20433;-77
2022/03/15 00:54:59;;;;;;;16.37;5.50;;;;;;;;;;5039659;28;20458;-78
2022/03/15 00:57:26;;;;;;;8.23;4.00;;;;;;;;;;5049062;28;20422;-77
2022/03/15 00:59:52;;;;;;;9.20;4.80;;;;;;;;;;5041927;28;20402;-77
2022/03/15 01:02:21;;;;;;;9.33;4.13;;;;;;;;;;5039875;28;20919;-77
2022/03/15 01:04:57;;;;;;;9.20;4.53;;;;;;;;;;5039573;28;20899;-77
2022/03/15 01:07:27;;;;;;;8.03;4.30;;;;;;;;;;5040477;28;20770;-77
2022/03/15 01:09:53;;;;;;;15.47;4.40;;;;;;;;;;5039650;28;20430;-77
2022/03/15 01:12:19;;;;;;;8.30;3.90;;;;;;;;;;5047337;28;20446;-77
2022/03/15 01:14:46;;;;;;;16.53;5.37;;;;;;;;;;5023289;28;20454;-77
2022/03/15 01:17:12;;;;;;;8.40;3.30;;;;;;;;;;5045619;28;20842;-77
2022/03/15 01:19:39;;;;;;;20.48;6.00;;;;;;;;;;5037368;28;20427;-75
2022/03/15 01:22:05;;;;;;;11.23;4.97;;;;;;;;;;5036223;28;20183;-75
2022/03/15 01:24:32;;;;;;;29.77;7.00;;;;;;;;;;5040573;28;20430;-74
2022/03/15 01:26:58;;;;;;;14.17;4.80;;;;;;;;;;5042256;28;20419;-75
2022/03/15 01:29:27;;;;;;;16.63;5.00;;;;;;;;;;5037082;28;20811;-75
2022/03/15 01:32:03;;;;;;;13.87;4.70;;;;;;;;;;5022869;28;20451;-75
2022/03/15 01:34:33;;;;;;;17.17;4.90;;;;;;;;;;5036283;28;20462;-74
2022/03/15 01:37:03;;;;;;;13.83;4.60;;;;;;;;;;5035645;28;20904;-75
2022/03/15 01:39:30;;;;;;;12.50;5.50;;;5.10;1.00;;;;;;5039505;28;20418;-75
2022/03/15 01:41:56;;;;;;;11.80;4.83;;;;;;;;;;5038922;28;20831;-76
2022/03/15 01:44:29;;;;;;;11.43;4.67;;;;;;;;;;5038618;28;20809;-75
2022/03/15 01:46:55;;;;;;;17.03;5.33;;;;;;;;;;5038874;28;20810;-74
2022/03/15 01:49:22;;;;;;;10.57;4.77;;;;;;;;;;5027142;28;20434;-75
2022/03/15 01:51:48;;;;;;;20.37;5.77;;;;;;;;;;5035470;28;20412;-75
2022/03/15 01:54:15;;;;;;;18.57;5.10;;;;;;;;;;5044010;28;20469;-75
2022/03/15 01:56:45;;;;;;;12.30;5.30;;;;;;;;;;5038869;28;20432;-75
2022/03/15 01:59:15;;;;;;;11.23;4.40;;;;;;;;;;5043366;28;20415;-74
2022/03/15 02:01:51;;;;;;;16.77;6.30;;;;;;;;;;5033523;28;20967;-75
2022/03/15 02:04:27;;;;;;;10.00;5.00;;;;;;;;;;5041496;28;20403;-77
2022/03/15 02:07:13;;;;;;;10.40;4.43;;;5.00;1.00;;;;;;5042615;28;20414;-77
2022/03/15 02:09:45;;;;;;;14.10;5.57;;;;;;;;;;5019091;28;20927;-77
2022/03/15 02:12:10;;;;;;;21.13;6.03;;;4.10;1.00;;;;;;5044869;28;20418;-77
2022/03/15 02:14:37;;;;;;;17.03;5.43;;;;;;;;;;5036174;28;20517;-77
2022/03/15 02:17:09;;;;;;;9.27;4.70;;;;;;;;;;5043821;28;20418;-78
2022/03/15 02:19:39;;;;;;;7.73;5.13;;;;;;;;;;5054160;28;20414;-77
2022/03/15 02:22:05;;;;;;;8.52;4.93;;;;;;;;;;5051660;28;20433;-77
2022/03/15 02:24:34;;;;;;;11.23;4.77;;;;;;;;;;5039418;28;20222;-78
2022/03/15 02:27:03;;;;;;;17.20;5.25;;;;;;;;;;5054157;28;20436;-77
2022/03/15 02:29:29;;;;;;;22.50;5.75;;;;;;;;;;5019279;28;20171;-78
2022/03/15 02:32:14;;;;;;;16.03;5.60;;;5.00;1.00;;;;;;5053594;28;20606;-77
2022/03/15 02:34:40;;;;;;;17.70;5.40;;;;;;;;;;5040610;28;20445;-75
2022/03/15 02:37:06;;;;;;;21.17;6.43;;;;;;;;;;5050922;28;20416;-75
2022/03/15 02:39:32;;;;;;;11.70;4.77;;;;;;;;;;5038745;28;21128;-75
2022/03/15 02:42:03;;;;;;;14.17;5.00;;;;;;;;;;5036754;28;20839;-75
2022/03/15 02:44:29;;;;;;;17.30;5.63;;;;;;;;;;5035637;28;20914;-75
2022/03/15 02:46:55;;;;;;;9.45;4.55;;;;;;;;;;5038134;28;20762;-75
2022/03/15 02:49:21;;;;;;;17.93;5.90;;;;;;;;;;5042760;28;20318;-75
2022/03/15 02:51:48;;;;;;;21.80;6.43;;;;;;;;;;5035113;28;20411;-75
2022/03/15 02:54:14;;;;;;;21.00;5.47;;;;;;;;;;5034518;28;20419;-75
2022/03/15 02:56:42;;;;;;;13.23;5.03;;;;;;;;;;5038460;28;20925;-74
2022/03/15 02:59:08;;;;;;;10.15;5.18;;;;;;;;;;5042479;28;20407;-74
2022/03/15 03:01:34;;;;;;;13.90;5.45;;;;;;;;;;5036649;28;20176;-75
2022/03/15 03:04:03;;;;;;;11.17;5.37;;;;;;;;;;5034683;28;20175;-77
2022/03/15 03:06:33;;;;;;;10.73;4.47;;;;;;;;;;5035313;28;20834;-77
2022/03/15 03:08:59;;;;;;;11.47;4.90;;;;;;;;;;5034494;28;20172;-77
2022/03/15 03:11:25;;;;;;;19.03;5.23;;;;;;;;;;5035390;28;20438;-77
2022/03/15 03:13:55;;;;;;;11.77;4.43;;;;;;;;;;5016703;28;20443;-77
2022/03/15 03:16:28;;;;;;;20.47;5.50;;;5.00;1.00;;;;;;5035011;28;20450;-77
2022/03/15 03:18:58;;;;;;;23.00;5.10;;;;;;;;;;5034616;28;20439;-74
2022/03/15 03:21:28;;;;;;;16.67;5.10;;;;;;;;;;5034852;28;20412;-75
2022/03/15 03:23:57;;;;;;;18.43;5.17;;;;;;;;;;5033944;28;20747;-74
2022/03/15 03:26:24;;;;;;;15.17;4.90;;;5.00;1.00;;;;;;5035553;28;20461;-75
2022/03/15 03:28:52;;;;;;;15.33;5.40;;;;;;;;;;5038223;28;20422;-75
2022/03/15 03:31:19;;;;;;;8.90;4.53;;;;;;;;;;5040029;28;20896;-74
2022/03/15 03:33:45;;;;;;;15.30;4.67;;;;;;;;;;5034067;28;20415;-74
2022/03/15 03:36:27;;;;;;;17.60;5.43;;;;;;;;;;5025047;28;20486;-74
2022/03/15 03:39:04;;;;;;;11.50;4.27;;;5.00;1.00;;;;;;5035184;28;20519;-75
2022/03/15 03:41:31;;;;;;;8.77;4.27;;;;;;;;;;5031368;28;20418;-75
2022/03/15 03:43:57;;;;;;;12.17;4.60;;;;;;;;;;5053683;28;20448;-75
2022/03/15 03:46:23;;;;;;;13.20;4.13;;;;;;;;;;5033639;28;20431;-75
2022/03/15 03:48:51;;;;;;;32.07;6.67;;;;;;;;;;5031239;28;20527;-75
2022/03/15 03:51:19;;;;;;;9.83;4.60;;;5.10;1.00;;;;;;5022407;28;20768;-75
2022/03/15 03:53:57;;;;;;;9.50;4.20;;;;;;;;;;5033448;28;20799;-75
2022/03/15 03:56:27;;;;;;;13.20;4.90;;;;;;;;;;5036612;28;20961;-74
2022/03/15 03:58:57;;;;;;;10.60;4.50;;;;;;;;;;5033236;28;20759;-74
2022/03/15 04:01:23;;;;;;;9.60;4.73;;;;;;;;;;5035352;28;20419;-75
2022/03/15 04:03:51;;;;;;;13.93;4.63;;;;;;;;;;5033188;28;20501;-75
2022/03/15 04:06:17;;;;;;;12.47;4.50;;;;;;;;;;5034672;28;20765;-75
2022/03/15 04:08:44;;;;;;;13.60;4.40;;;;;;;;;;5033317;28;20432;-75
2022/03/15 04:11:10;;;;;;;8.37;4.30;;;;;;;;;;5041085;28;20529;-75
2022/03/15 04:13:41;;;;;;;17.47;5.00;;;;;;;;;;5015377;28;20882;-75
2022/03/15 04:16:09;;;;;;;11.87;4.10;;;;;;;;;;5043129;28;20465;-75
2022/03/15 04:18:35;;;;;;;25.33;5.70;;;;;;;;;;5033465;28;20497;-75
2022/03/15 04:21:01;;;;;;;15.80;4.40;;;;;;;;;;5023429;28;20470;-75
2022/03/15 04:23:27;;;;;;;8.80;4.23;;;;;;;;;;5033329;28;20407;-75
2022/03/15 04:25:53;;;;;;;34.23;6.90;;;;;;;;;;5037007;28;20942;-75
2022/03/15 04:28:19;;;;;;;12.77;4.77;;;;;;;;;;5041866;28;20438;-75
2022/03/15 04:30:45;;;;;;;6.70;3.50;;;;;;;;;;5033434;28;20793;-75
2022/03/15 04:33:15;;;;;;;16.80;5.07;;;;;;;;;;5032976;28;20442;-74
2022/03/15 04:35:45;;;;;;;14.03;4.00;;;;;;;;;;5033734;28;20458;-77
2022/03/15 04:38:15;;;;;;;8.93;4.67;;;;;;;;;;5033205;28;20743;-77
2022/03/15 04:40:45;;;;;;;9.43;4.30;;;;;;;;;;5034176;28;20880;-77
2022/03/15 04:43:21;;;;;;;17.03;4.63;;;;;;;;;;5033303;28;20959;-77
2022/03/15 04:45:57;;;;;;;13.43;4.20;;;;;;;;;;5033077;28;20429;-78
2022/03/15 04:48:27;;;;;;;10.90;4.40;;;;;;;;;;5046281;28;20519;-77
2022/03/15 04:50:53;;;;;;;7.87;3.73;;;;;;;;;;5045214;28;20422;-75
2022/03/15 04:53:19;;;;;;;13.17;4.27;;;;;;;;;;5023706;28;20930;-75
2022/03/15 04:55:46;;;;;;;8.47;4.40;;;;;;;;;;5049336;28;20469;-75
2022/03/15 04:58:15;;;;;;;9.63;4.37;;;;;;;;;;5041603;28;20418;-75
2022/03/15 05:00:41;;;;;;;10.00;4.70;;;;;;;;;;5036686;28;20403;-75
2022/03/15 05:03:07;;;;;;;10.53;4.67;;;;;;;;;;5043295;28;20422;-75
2022/03/15 05:05:39;;;;;;;10.17;4.40;;;;;;;;;;5026779;28;20867;-78
2022/03/15 05:08:05;;;;;;;16.10;5.20;;;;;;;;;;5038672;28;20423;-77
2022/03/15 05:13:28;;;;;;;17.00;5.20;;;;;;;;;;5037203;28;20496;-77
2022/03/15 05:16:18;;;;;;;19.33;4.40;;;5.60;1.00;;;;;;5036367;28;20817;-77
2022/03/15 05:18:53;;;;;;;12.73;4.63;;;5.60;1.00;;;;;;5042745;28;20469;-77
2022/03/15 05:21:22;;;;;;;23.43;5.40;;;5.70;1.00;;;;;;5018928;28;20400;-75
2022/03/15 05:23:53;;;;;;;15.40;5.20;;;5.70;1.00;;;;;;5041739;28;20406;-75
2022/03/15 05:26:19;;;;;;;23.20;5.73;;;;;;;;;;5035830;28;20923;-75
2022/03/15 05:28:49;;;;;;;14.47;4.37;;;;;;;;;;5035852;28;20481;-75
2022/03/15 05:31:15;;;;;;;11.40;4.10;;;;;;;;;;5042604;28;20414;-75
2022/03/15 05:33:43;;;;;;;11.13;4.40;;;;;;;;;;5040171;28;20502;-75
2022/03/15 05:36:10;;;;;;;10.40;4.10;;;;;;;;;;5036318;28;20902;-77
2022/03/15 05:38:39;;;;;;;17.40;4.70;;;;;;;;;;5022405;28;20435;-77
2022/03/15 05:41:07;;;;;;;18.53;4.77;;;;;;;;;;5031432;28;20435;-77
2022/03/15 05:43:34;;;;;;;10.20;3.83;;;;;;;;;;5031505;28;20415;-76
2022/03/15 05:46:00;;;;;;;14.63;4.60;;;;;;;;;;5035732;28;20423;-77
2022/03/15 05:48:26;;;;;;;8.00;3.90;;;;;;;;;;5035803;28;20411;-77
2022/03/15 05:51:03;;;;;;;9.57;4.00;;;;;;;;;;5050837;28;20402;-77
2022/03/15 05:53:29;;;;;;;13.50;4.07;;;;;;;;;;5036838;28;20410;-77
2022/03/15 05:55:57;;;;;;;17.03;4.70;;;;;;;;;;5038761;28;20824;-77
2022/03/15 05:58:23;;;;;;;11.93;3.90;;;;;;;;;;5036187;28;20458;-77
2022/03/15 06:00:55;;;;;;;10.23;3.80;;;;;;;;;;5035803;28;20888;-78
2022/03/15 06:03:27;;;;;;;5.73;3.53;;;;;;;;;;5046506;28;20453;-78
2022/03/15 06:05:53;;;;;;;16.80;4.40;;;;;;;;;;5037811;28;20416;-75
2022/03/15 06:08:19;;;;;;;14.77;4.43;;;;;;;;;;5035274;28;20410;-75
2022/03/15 06:10:51;;;;;;;6.77;3.50;;;;;;;;;;5036734;28;20422;-75
2022/03/15 06:13:22;;;;;;;9.53;3.50;;;;;;;;;;5023551;28;20775;-75
2022/03/15 06:15:48;;;;;;;8.70;3.40;;;;;;;;;;5036028;28;20459;-75
2022/03/15 06:18:14;;;;;;;14.70;4.43;;;;;;;;;;5034890;28;20505;-75
2022/03/15 06:20:40;;;;;;;8.50;3.20;;;;;;;;;;5035322;28;20457;-76
2022/03/15 06:23:07;;;;;;;15.93;4.13;;;;;;;;;;5035037;28;20443;-75
2022/03/15 06:25:33;;;;;;;9.40;3.37;;;;;;;;;;5049272;28;20464;-74
2022/03/15 06:27:59;;;;;;;10.20;4.40;;;;;;;;;;5017178;28;20418;-75
2022/03/15 06:30:25;;;;;;;7.63;3.70;;;;;;;;;;5026632;28;20767;-75
2022/03/15 06:32:52;;;;;;;11.03;4.17;;;;;;;;;;5034810;28;20467;-75
2022/03/15 06:35:19;;;;;;;5.90;3.60;;;;;;;;;;5043546;28;20966;-74
2022/03/15 06:37:47;;;;;;;8.40;3.47;;;6.00;1.00;;;;;;5045949;28;20446;-75
2022/03/15 06:40:19;;;;;;;22.57;4.33;;;6.20;1.00;;;;;;5038020;28;20423;-75
2022/03/15 06:42:45;;;;;;;14.63;4.37;;;;;;;;;;5018074;28;20447;-75
2022/03/15 06:45:11;;;;;;;8.77;3.73;;;;;;;;;;5018537;28;20427;-75
2022/03/15 06:47:38;;;;;;;12.67;4.80;;;6.30;1.00;;;;;;5041873;28;20445;-74
2022/03/15 06:50:12;;;;;;;10.47;3.97;;;6.50;1.00;;;;;;5033675;28;20493;-75
2022/03/15 06:52:38;;;;;;;11.10;3.73;;;;;;;;;;5035805;28;20426;-76
2022/03/15 06:55:05;;;;;;;17.57;4.97;;;;;;;;;;5039623;28;20816;-76
2022/03/15 06:57:32;;;;;;;9.83;3.30;;;6.70;1.00;;;;;;5033247;28;20419;-76
2022/03/15 07:00:00;;;;;;;14.20;4.23;;;;;;;;;;5033320;28;20418;-76
2022/03/15 07:02:29;;;;;;;9.60;3.57;;;;;;;;;;5032532;28;20426;-76
2022/03/15 07:04:56;;;;;;;9.07;3.90;;;;;;;;;;5032668;28;20423;-76
2022/03/15 07:07:23;;;;;;;13.07;4.40;;;;;;;;;;5034412;28;20553;-76
2022/03/15 07:09:49;;;;;;;16.40;4.73;;;;;;;;;;5033883;28;20748;-76
2022/03/15 07:12:15;;;;;;;7.73;3.50;;;7.20;1.00;;;;;;5028500;28;20429;-76
2022/03/15 07:14:45;;;;;;;7.07;3.90;;;;;;;;;;5048219;28;20818;-76
2022/03/15 07:17:11;;;;;;;11.47;4.10;;;;;;;;;;5017217;28;20474;-76
2022/03/15 07:19:37;;;;;;;10.03;4.00;;;;;;;;;;5027401;28;20423;-76
2022/03/15 07:22:06;;;;;;;12.70;5.00;;;;;;;;;;5042390;28;20431;-74
2022/03/15 07:24:32;;;;;;;9.30;4.07;;;;;;;;;;5033457;28;20473;-75
2022/03/15 07:26:59;;;;;;;72.37;8.90;;;;;;;;;;5029900;28;20437;-75
2022/03/15 07:29:25;;;;;;;13.00;4.93;;;;;;;;;;5040771;28;20423;-75
2022/03/15 07:31:51;;;;;;;13.67;4.70;;;;;;;;;;5027134;28;20473;-75
2022/03/15 07:34:21;;;;;;;32.07;5.40;;;;;;;;;;5030396;28;20419;-74
2022/03/15 07:36:47;;;;;;;13.47;4.47;;;;;;;;;;5034397;28;20439;-76
2022/03/15 07:39:13;;;;;;;23.40;5.53;;;;;;;;;;5015759;28;20434;-76
2022/03/15 07:41:40;;;;;;;20.63;4.90;;;;;;;;;;5038708;28;20427;-76
2022/03/15 07:44:09;;;;;;;23.53;5.33;;;;;;;;;;5034177;28;20774;-76
2022/03/15 07:46:40;;;;;;;19.63;4.53;;;;;;;;;;5033440;28;20403;-76
2022/03/15 07:49:19;;;;;;;18.30;5.10;;;8.20;1.00;;;;;;5033266;28;20911;-76
2022/03/15 07:51:46;;;;;;;21.47;4.97;;;8.30;1.00;;;;;;5032964;28;20435;-80
2022/03/15 07:54:15;;;;;;;16.20;5.23;;;;;;;;;;5032770;28;20961;-76
2022/03/15 07:56:45;;;;;;;12.20;4.23;;;;;;;;;;5015677;28;20461;-76
2022/03/15 07:59:21;;;;;;;13.23;4.70;;;;;;;;;;5036384;28;20422;-76
2022/03/15 08:01:47;;;;;;;16.23;5.07;;;;;;;;;;5033378;28;20907;-76
2022/03/15 08:04:13;;;;;;;13.20;4.70;;;;;;;;;;5033103;28;20414;-76
2022/03/15 08:06:39;;;;;;;16.33;4.50;;;;;;;;;;5033680;28;20418;-74
2022/03/15 08:09:06;;;;;;;8.90;3.57;;;8.90;1.00;;;;;;5033374;28;20410;-74
2022/03/15 08:11:33;;;;;;;9.30;4.27;;;;;;;;;;5015659;28;20445;-74
2022/03/15 08:13:59;;;;;;;9.17;3.70;;;;;;;;;;5033199;28;20442;-75
2022/03/15 08:16:25;;;;;;;8.77;3.80;;;;;;;;;;5032678;28;20802;-75
2022/03/15 08:18:53;;;;;;;11.13;4.00;;;;;;;;;;5033998;28;20439;-74
2022/03/15 08:21:19;;;;;;;9.93;3.93;;;;;;;;;;5045240;28;20414;-75
2022/03/15 08:23:45;;;;;;;7.53;3.97;;;9.00;1.00;;;;;;5044059;28;20411;-75
2022/03/15 08:26:12;;;;;;;12.27;3.80;;;;;;;;;;5041425;28;20759;-74
2022/03/15 08:28:38;;;;;;;15.63;4.30;;;;;;;;;;5037019;28;20502;-75
2022/03/15 08:31:04;;;;;;;10.03;4.07;;;;;;;;;;5037127;28;20498;-75
2022/03/15 08:33:30;;;;;;;7.43;3.90;;;;;;;;;;5036928;28;20411;-75
2022/03/15 08:35:56;;;;;;;15.03;4.67;;;;;;;;;;5036621;28;20461;-74
2022/03/15 08:38:23;;;;;;;11.60;4.50;;;;;;;;;;5038740;28;20880;-74
2022/03/15 08:40:49;;;;;;;17.10;4.77;;;;;;;;;;5043067;28;20426;-74
2022/03/15 08:43:15;;;;;;;21.93;4.80;;;;;;;;;;5038123;28;20501;-74
2022/03/15 08:45:42;;;;;;;14.30;4.60;;;;;;;;;;5035060;28;20973;-74
2022/03/15 08:48:08;;;;;;;11.27;4.50;;;;;;;;;;5036837;28;20415;-74
2022/03/15 08:50:35;;;;;;;13.33;4.13;;;;;;;;;;5036442;28;20485;-74
2022/03/15 08:53:01;;;;;;;14.27;4.70;;;;;;;;;;5036992;28;20419;-76
2022/03/15 08:55:28;;;;;;;14.53;5.00;;;;;;;;;;5045957;28;20483;-75
2022/03/15 08:57:54;;;;;;;22.57;5.57;;;;;;;;;;5036427;28;20416;-75
2022/03/15 09:00:21;;;;;;;8.10;4.00;;;;;;;;;;5036403;28;20486;-76
2022/03/15 09:02:47;;;;;;;20.97;5.30;;;;;;;;;;5035615;28;20415;-76
2022/03/15 09:05:14;;;;;;;11.03;5.07;;;;;;;;;;5035510;28;20415;-76
2022/03/15 09:07:40;;;;;;;25.23;6.10;;;;;;;;;;5036112;28;20698;-75
2022/03/15 09:10:07;;;;;;;15.50;5.10;;;10.30;1.00;;;;;;5047729;28;20455;-75
2022/03/15 09:12:34;;;;;;;12.10;4.63;;;;;;;;;;5036574;28;20434;-75
2022/03/15 09:15:00;;;;;;;9.50;4.63;;;;;;;;;;5032913;28;20462;-76
2022/03/15 09:17:26;;;;;;;14.93;4.37;;;;;;;;;;5035295;28;20426;-76
2022/03/15 09:19:52;;;;;;;9.77;4.50;;;;;;;;;;5035525;28;20410;-76
2022/03/15 09:22:19;;;;;;;13.03;4.87;;;;;;;;;;5035172;28;20496;-77
2022/03/15 09:24:45;;;;;;;11.40;4.73;;;;;;;;;;5035178;28;20421;-77
2022/03/15 09:27:12;;;;;;;11.27;4.63;;;;;;;;;;5035049;28;20465;-77
2022/03/15 09:29:38;;;;;;;10.03;4.80;;;;;;;;;;5026306;28;20415;-77
2022/03/15 09:32:05;;;;;;;12.30;5.03;;;;;;;;;;5035108;28;20442;-77
2022/03/15 09:34:32;;;;;;;13.90;5.30;;;;;;;;;;5034081;28;20934;-77
2022/03/15 09:36:59;;;;;;;12.97;4.90;;;10.40;1.00;;;;;;5035046;28;20420;-77
2022/03/15 09:39:25;;;;;;;7.50;4.27;;;;;;;;;;5035275;28;20770;-77
2022/03/15 09:41:54;;;;;;;12.00;4.57;;;10.50;1.00;;;;;;5034683;28;20839;-77
2022/03/15 09:44:25;;;;;;;11.87;4.77;;;10.50;1.00;;;;;;5035342;28;20402;-78
2022/03/15 09:46:51;;;;;;;10.70;4.60;;;;;;;;;;5034575;28;20483;-77
2022/03/15 09:49:19;;;;;;;11.20;4.90;;;10.60;1.00;;;;;;5035010;28;20405;-77
2022/03/15 09:51:48;;;;;;;13.30;5.80;;;10.60;1.00;;;;;;5034516;28;20415;-77
2022/03/15 09:54:15;;;;;;;17.80;6.07;;;;;;;;;;5034588;28;20421;-77
2022/03/15 09:56:42;;;;;;;15.93;5.53;;;10.60;1.00;;;;;;5035556;28;20462;-77
2022/03/15 09:59:22;;;;;;;13.63;4.97;;;10.60;1.00;;;;;;5043758;28;20768;-78
2022/03/15 10:01:50;;;;;;;9.90;5.10;;;10.60;1.00;;;;;;5023100;28;20415;-77
2022/03/15 10:04:17;;;;;;;22.10;6.23;;;;;;;;;;5044720;28;20397;-77
2022/03/15 10:06:45;;;;;;;20.33;6.50;;;;;;;;;;5039606;28;20422;-77
2022/03/15 10:09:11;;;;;;;9.17;4.83;;;;;;;;;;5022998;28;20498;-77
2022/03/15 10:11:38;;;;;;;11.53;5.17;;;;;;;;;;5040915;28;20438;-76
2022/03/15 10:14:05;;;;;;;17.90;5.37;;;;;;;;;;5036089;28;20437;-78
2022/03/15 10:16:41;;;;;;;11.33;5.20;;;10.60;1.00;;;;;;5022783;28;20455;-77
2022/03/15 10:19:08;;;;;;;11.53;5.57;;;;;;;;;;5035480;28;20426;-77
2022/03/15 10:21:46;;;;;;;21.40;6.70;;;;;;;;;;5036764;28;20394;-77
2022/03/15 10:24:27;;;;;;;10.13;5.40;;;10.50;1.00;;;;;;5034075;28;20382;-77
2022/03/15 10:26:56;;;;;;;21.17;6.47;;;10.50;1.00;;;;;;5037698;28;20432;-77
2022/03/15 10:29:23;;;;;;;14.00;6.30;;;;;;;;;;5033756;28;20421;-77
2022/03/15 10:31:51;;;;;;;15.37;5.70;;;;;;;;;;5016137;28;20393;-77
2022/03/15 10:34:17;;;;;;;15.63;6.10;;;;;;;;;;5034018;28;20903;-77
2022/03/15 10:36:49;;;;;;;21.37;7.00;;;10.40;1.00;;;;;;5033835;28;20812;-77
2022/03/15 10:39:17;;;;;;;13.03;5.90;;;10.40;1.00;;;;;;5033871;28;20908;-77
2022/03/15 10:41:52;;;;;;;11.73;5.50;;;;;;;;;;5038057;28;20565;-75
2022/03/15 10:44:24;;;;;;;12.97;5.90;;;10.30;1.00;;;;;;5033443;28;20407;-75
2022/03/15 10:47:01;;;;;;;18.27;6.83;;;;;;;;;;5035271;28;20441;-75
2022/03/15 10:49:28;;;;;;;15.67;6.47;;;;;;;;;;5041833;28;20417;-75
2022/03/15 10:51:54;;;;;;;17.20;7.40;;;;;;;;;;5036943;28;20487;-75
2022/03/15 10:54:22;;;;;;;13.70;6.70;;;;;;;;;;5040740;28;20895;-75
2022/03/15 10:56:53;;;;;;;16.83;6.47;;;;;;;;;;5034523;28;20963;-76
2022/03/15 10:59:21;;;;;;;22.20;7.00;;;;;;;;;;5033443;28;20799;-77
2022/03/15 11:01:51;;;;;;;19.03;6.90;;;10.10;1.00;;;;;;5034594;28;20396;-78
2022/03/15 11:04:18;;;;;;;17.97;7.30;;;;;;;;;;5022180;28;20531;-76
2022/03/15 11:06:44;;;;;;;22.87;7.97;;;;;;;;;;5023132;28;20437;-76
2022/03/15 11:09:25;;;;;;;19.40;7.20;;;;;;;;;;5032984;28;20420;-77
2022/03/15 11:12:08;;;;;;;20.67;7.97;;;10.10;1.00;;;;;;5044848;28;20418;-76
2022/03/15 11:14:40;;;;;;;14.07;6.90;;;10.00;1.00;;;;;;5036128;28;20899;-76
2022/03/15 11:17:16;;;;;;;18.00;8.30;;;10.00;1.00;;;;;;5034078;28;20434;-75
2022/03/15 11:20:03;;;;;;;23.20;8.47;;;10.00;1.00;;;;;;5044331;28;20406;-74
2022/03/15 11:22:31;;;;;;;16.17;7.77;;;10.00;1.00;;;;;;5036004;28;20419;-74
2022/03/15 11:25:04;;;;;;;21.83;7.17;;;;;;;;;;5037994;28;20401;-74
2022/03/15 11:27:36;;;;;;;16.17;7.10;;;9.90;1.00;;;;;;5033879;28;20475;-74
2022/03/15 11:30:03;;;;;;;25.37;8.20;;;;;;;;;;5033055;28;20431;-75
2022/03/15 11:32:35;;;;;;;17.47;7.57;;;;;;;;;;5032649;28;20505;-75
2022/03/15 11:35:01;;;;;;;26.37;8.67;;;;;;;;;;5032097;28;20449;-75
2022/03/15 11:37:29;;;;;;;16.83;8.10;;;;;;;;;;5045218;28;20467;-75
2022/03/15 11:39:55;;;;;;;18.97;8.37;;;;;;;;;;5032112;28;20431;-75
2022/03/15 11:42:21;;;;;;;20.10;8.33;;;;;;;;;;5037277;28;20442;-74
2022/03/15 11:45:20;;;;;;;34.00;9.33;;;;;;;;;;5033753;28;20426;-75
2022/03/15 11:47:46;;;;;;;24.30;7.20;;;;;;;;;;4948908;29;20537;-75
2022/03/15 11:50:35;;;;;;;21.97;7.67;;;9.80;1.00;;;;;;4933680;29;20597;-75
2022/03/15 11:53:05;;;;;;;22.50;8.07;;;;;;;;;;4944766;29;20421;-75
2022/03/15 11:55:31;;;;;;;33.07;9.13;;;;;;;;;;4948096;29;20473;-74
2022/03/15 11:58:04;;;;;;;21.60;9.23;;;9.70;1.00;;;;;;4942754;29;20442;-75
2022/03/15 12:00:30;;;;;;;22.33;8.87;;;;;;;;;;4952892;29;20433;-75
2022/03/15 12:03:02;;;;;;;25.23;9.27;;;9.70;1.00;;;;;;4952250;29;20522;-75
2022/03/15 12:05:30;;;;;;;16.40;7.67;;;;;;;;;;4944603;29;20501;-75
2022/03/15 12:08:13;;;;;;;33.10;9.10;;;9.70;1.00;;;;;;4951091;29;20438;-75
2022/03/15 12:10:51;;;;;;;27.97;9.80;;;9.80;1.00;;;;;;4947799;29;20438;-75
2022/03/15 12:13:21;;;;;;;20.53;9.00;;;;;;;;;;4952067;29;20552;-74
2022/03/15 12:15:51;;;;;;;29.30;9.00;;;;;;;;;;4952604;29;20863;-75
2022/03/15 12:20:48;;;;;;;21.20;9.23;;;;;;;;;;4944350;29;20400;-75
2022/03/15 12:23:22;;;;;;;15.47;8.07;;;9.80;1.00;;;;;;4982491;28;20431;-74
2022/03/15 12:25:56;;;;;;;20.47;9.23;;;9.80;1.00;;;;;;5032384;28;20940;-74
2022/03/15 12:28:32;;;;;;;21.80;8.80;;;9.90;1.00;;;;;;5020440;28;20421;-75
2022/03/15 12:31:08;;;;;;;20.40;8.30;;;;;;;;;;5015230;28;20437;-75
2022/03/15 12:33:35;;;;;;;27.27;8.67;;;;;;;;;;5022569;28;20752;-75
2022/03/15 12:36:08;;;;;;;19.23;8.57;;;;;;;;;;5032218;28;20920;-75
2022/03/15 12:38:37;;;;;;;18.20;8.33;;;9.90;1.00;;;;;;5032590;28;20431;-75
2022/03/15 12:41:04;;;;;;;18.53;7.80;;;9.90;1.00;;;;;;5032358;28;20443;-75
2022/03/15 12:43:31;;;;;;;25.83;9.47;;;9.80;1.00;;;;;;5033212;28;20393;-75
2022/03/15 12:46:03;;;;;;;28.43;9.27;;;9.70;1.00;;;;;;5031713;28;20796;-74
2022/03/15 12:48:34;;;;;;;20.57;9.23;;;9.60;1.00;;;;;;5033030;28;20412;-74
2022/03/15 12:51:01;;;;;;;24.50;9.03;;;;;;;;;;5025024;28;20457;-73
2022/03/15 12:53:42;;;;;;;29.23;10.40;;;;;;;;;;5031852;28;20419;-73
2022/03/15 12:56:10;;;;;;;23.47;9.23;;;;;;;;;;5031707;28;20459;-72
2022/03/15 12:58:39;;;;;;;26.13;9.20;;;;;;;;;;5033361;28;20892;-77
2022/03/15 13:01:12;;;;;;;30.23;9.80;;;9.50;1.00;;;;;;5032280;28;20454;-77
2022/03/15 13:03:41;;;;;;;18.07;8.57;;;9.40;1.00;;;;;;5032727;28;20912;-77
2022/03/15 13:06:17;;;;;;;21.03;8.33;;;9.10;1.00;;;;;;5032101;28;20431;-78
2022/03/15 13:08:59;;;;;;;19.83;8.10;;;9.00;1.00;;;;;;5035044;28;20513;-78
2022/03/15 13:11:26;;;;;;;17.20;8.07;;;;;;;;;;5037148;28;20437;-77
2022/03/15 13:13:54;;;;;;;20.00;8.60;;;8.90;1.00;;;;;;5035877;28;20569;-73
2022/03/15 13:16:22;;;;;;;28.83;9.33;;;;;;;;;;5035333;28;20462;-73
2022/03/15 13:18:48;;;;;;;23.03;9.00;;;;;;;;;;5035928;28;20431;-73
2022/03/15 13:21:15;;;;;;;16.73;8.90;;;;;;;;;;5033907;28;20434;-74
2022/03/15 13:23:48;;;;;;;17.43;8.33;;;;;;;;;;5020097;28;20759;-74
2022/03/15 13:26:17;;;;;;;23.83;8.77;;;;;;;;;;5017936;28;20431;-73
2022/03/15 13:28:53;;;;;;;18.93;8.73;;;;;;;;;;5041771;28;20500;-78
2022/03/15 13:31:35;;;;;;;18.17;8.50;;;;;;;;;;5018467;28;20430;-78
2022/03/15 13:34:13;;;;;;;20.30;8.50;;;;;;;;;;5020906;28;20524;-78
2022/03/15 13:36:39;;;;;;;20.90;8.63;;;;;;;;;;5040481;28;20454;-78
2022/03/15 13:39:07;;;;;;;21.97;9.30;;;8.60;1.00;;;;;;5035548;28;20426;-78
2022/03/15 13:41:41;;;;;;;19.27;8.63;;;8.60;1.00;;;;;;5036280;28;20424;-78
2022/03/15 13:44:15;;;;;;;39.57;10.83;;;8.70;1.00;;;;;;5035656;28;20864;-73
2022/03/15 13:46:42;;;;;;;26.83;8.47;;;8.60;1.00;;;;;;5035173;28;20423;-74
2022/03/15 13:49:24;;;;;;;23.43;9.30;;;;;;;;;;5044399;28;20434;-74
2022/03/15 13:52:01;;;;;;;27.40;8.80;;;8.60;1.00;;;;;;5028861;28;20414;-74
2022/03/15 13:54:27;;;;;;;23.10;9.17;;;;;;;;;;5041873;28;20434;-74
2022/03/15 13:56:54;;;;;;;21.43;8.80;;;8.50;1.00;;;;;;5035510;28;20541;-74
2022/03/15 13:59:23;;;;;;;21.70;9.00;;;8.60;1.00;;;;;;5035511;28;20847;-74
2022/03/15 14:01:50;;;;;;;25.60;9.70;;;;;;;;;;5035635;28;20431;-74
2022/03/15 14:04:26;;;;;;;25.23;8.90;;;8.70;1.00;;;;;;5035020;28;20426;-74
2022/03/15 14:06:59;;;;;;;22.37;8.37;;;8.70;1.00;;;;;;5035746;28;20422;-74
2022/03/15 14:09:25;;;;;;;22.63;9.10;;;;;;;;;;5039257;28;20514;-74
2022/03/15 14:12:09;;;;;;;23.93;9.00;;;8.80;1.00;;;;;;5035365;28;20423;-74
2022/03/15 14:14:39;;;;;;;27.53;8.23;;;8.80;1.00;;;;;;5036357;28;20927;-75
2022/03/15 14:17:05;;;;;;;17.13;8.67;;;;;;;;;;5040876;28;20440;-75
2022/03/15 14:19:42;;;;;;;23.20;9.03;;;;;;;;;;5034425;28;20411;-75
2022/03/15 14:22:09;;;;;;;35.07;9.50;;;;;;;;;;5034656;28;20427;-75
2022/03/15 14:24:35;;;;;;;24.60;9.30;;;;;;;;;;5034792;28;20419;-75